sensor_id;sensor_type;location;lat;lon;timestamp;pressure;altitude;pressure_sealevel;temperature;humidity
1926;BME280;964;42.606;23.588;2022-12-24T00:01:41;94392.75;;;20.72;30.41
1926;BME280;964;42.606;23.588;2022-12-24T00:04:08;94396.22;;;19.71;32.21
1926;BME280;964;42.606;23.588;2022-12-24T00:06:36;94404.50;;;19.80;32.69
1926;BME280;964;42.606;23.588;2022-12-24T00:09:03;94396.25;;;20.10;32.37
1926;BME280;964;42.606;23.588;2022-12-24T00:11:30;94394.56;;;19.96;32.73
1926;BME280;964;42.606;23.588;2022-12-24T00:13:56;94399.72;;;19.44;33.45
1926;BME280;964;42.606;23.588;2022-12-24T00:16:23;94400.91;;;19.86;32.54
1926;BME280;964;42.606;23.588;2022-12-24T00:18:50;94394.44;;;19.37;33.05
1926;BME280;964;42.606;23.588;2022-12-24T00:21:16;94393.47;;;19.51;33.57
1926;BME280;964;42.606;23.588;2022-12-24T00:23:45;94394.50;;;19.34;33.93
1926;BME280;964;42.606;23.588;2022-12-24T00:26:12;94393.22;;;19.42;33.95
1926;BME280;964;42.606;23.588;2022-12-24T00:28:39;94385.97;;;19.85;33.22
1926;BME280;964;42.606;23.588;2022-12-24T00:31:07;94390.06;;;19.70;33.20
1926;BME280;964;42.606;23.588;2022-12-24T00:33:34;94390.03;;;19.93;32.52
1926;BME280;964;42.606;23.588;2022-12-24T00:36:01;94399.50;;;18.48;34.96
1926;BME280;964;42.606;23.588;2022-12-24T00:38:27;94394.88;;;18.52;35.55
1926;BME280;964;42.606;23.588;2022-12-24T00:40:58;94394.59;;;19.27;34.01
1926;BME280;964;42.606;23.588;2022-12-24T00:43:25;94394.84;;;19.82;32.76
1926;BME280;964;42.606;23.588;2022-12-24T00:45:52;94386.69;;;20.68;31.37
1926;BME280;964;42.606;23.588;2022-12-24T00:48:19;94376.44;;;20.79;30.84
1926;BME280;964;42.606;23.588;2022-12-24T00:50:47;94375.88;;;21.04;30.55
1926;BME280;964;42.606;23.588;2022-12-24T00:53:13;94369.16;;;20.60;30.42
1926;BME280;964;42.606;23.588;2022-12-24T00:55:40;94369.22;;;20.57;30.61
1926;BME280;964;42.606;23.588;2022-12-24T00:58:08;94371.53;;;20.74;30.15
1926;BME280;964;42.606;23.588;2022-12-24T01:00:35;94379.69;;;20.71;30.16
1926;BME280;964;42.606;23.588;2022-12-24T01:03:01;94390.22;;;20.65;29.92
1926;BME280;964;42.606;23.588;2022-12-24T01:05:28;94390.19;;;20.06;30.69
1926;BME280;964;42.606;23.588;2022-12-24T01:07:54;94386.88;;;19.98;30.97
1926;BME280;964;42.606;23.588;2022-12-24T01:10:20;94385.75;;;20.39;30.33
1926;BME280;964;42.606;23.588;2022-12-24T01:12:47;94383.09;;;20.55;30.22
1926;BME280;964;42.606;23.588;2022-12-24T01:15:15;94379.94;;;21.28;29.01
1926;BME280;964;42.606;23.588;2022-12-24T01:17:42;94370.88;;;20.86;29.26
1926;BME280;964;42.606;23.588;2022-12-24T01:20:12;94376.28;;;20.86;29.53
1926;BME280;964;42.606;23.588;2022-12-24T01:22:39;94377.19;;;20.80;29.38
1926;BME280;964;42.606;23.588;2022-12-24T01:25:07;94379.28;;;20.88;29.45
1926;BME280;964;42.606;23.588;2022-12-24T01:27:34;94380.81;;;20.89;28.94
1926;BME280;964;42.606;23.588;2022-12-24T01:30:00;94381.13;;;20.39;29.54
1926;BME280;964;42.606;23.588;2022-12-24T01:32:28;94382.69;;;20.37;29.79
1926;BME280;964;42.606;23.588;2022-12-24T01:34:55;94379.53;;;20.42;29.95
1926;BME280;964;42.606;23.588;2022-12-24T01:37:22;94392.09;;;20.29;29.92
1926;BME280;964;42.606;23.588;2022-12-24T01:39:49;94382.91;;;19.83;30.79
1926;BME280;964;42.606;23.588;2022-12-24T01:42:19;94375.94;;;20.29;30.47
1926;BME280;964;42.606;23.588;2022-12-24T01:48:11;94379.16;;;20.60;29.29
1926;BME280;964;42.606;23.588;2022-12-24T01:50:39;94383.81;;;20.39;29.53
1926;BME280;964;42.606;23.588;2022-12-24T01:53:07;94390.06;;;20.13;29.75
1926;BME280;964;42.606;23.588;2022-12-24T01:55:35;94390.91;;;19.44;31.02
1926;BME280;964;42.606;23.588;2022-12-24T01:58:02;94391.22;;;19.46;30.57
1926;BME280;964;42.606;23.588;2022-12-24T02:00:29;94392.41;;;19.18;31.39
1926;BME280;964;42.606;23.588;2022-12-24T02:02:56;94385.06;;;19.22;31.34
1926;BME280;964;42.606;23.588;2022-12-24T02:05:28;94393.22;;;19.65;30.40
1926;BME280;964;42.606;23.588;2022-12-24T02:07:57;94393.34;;;20.01;30.03
1926;BME280;964;42.606;23.588;2022-12-24T02:10:25;94398.09;;;19.93;30.02
1926;BME280;964;42.606;23.588;2022-12-24T02:12:51;94386.69;;;19.66;31.23
1926;BME280;964;42.606;23.588;2022-12-24T02:15:19;94375.44;;;19.71;30.70
1926;BME280;964;42.606;23.588;2022-12-24T02:17:53;94376.19;;;19.72;30.19
1926;BME280;964;42.606;23.588;2022-12-24T02:20:38;94366.91;;;19.76;30.12
1926;BME280;964;42.606;23.588;2022-12-24T02:23:42;94373.25;;;19.66;30.11
1926;BME280;964;42.606;23.588;2022-12-24T02:26:25;94373.69;;;19.84;30.57
1926;BME280;964;42.606;23.588;2022-12-24T02:29:20;94373.94;;;19.70;30.43
1926;BME280;964;42.606;23.588;2022-12-24T02:31:59;94382.31;;;19.26;30.63
1926;BME280;964;42.606;23.588;2022-12-24T02:34:29;94385.28;;;19.31;31.23
1926;BME280;964;42.606;23.588;2022-12-24T02:37:02;94386.59;;;18.96;31.71
1926;BME280;964;42.606;23.588;2022-12-24T02:39:36;94378.56;;;19.70;30.73
1926;BME280;964;42.606;23.588;2022-12-24T02:42:06;94382.28;;;19.76;30.27
1926;BME280;964;42.606;23.588;2022-12-24T02:44:38;94381.53;;;19.75;30.79
1926;BME280;964;42.606;23.588;2022-12-24T02:47:09;94374.06;;;19.63;30.67
1926;BME280;964;42.606;23.588;2022-12-24T02:49:37;94382.34;;;19.72;30.58
1926;BME280;964;42.606;23.588;2022-12-24T02:52:03;94370.16;;;19.87;30.57
1926;BME280;964;42.606;23.588;2022-12-24T02:54:31;94368.50;;;20.72;29.91
1926;BME280;964;42.606;23.588;2022-12-24T02:57:06;94365.19;;;20.29;29.96
1926;BME280;964;42.606;23.588;2022-12-24T02:59:47;94369.03;;;20.28;30.12
1926;BME280;964;42.606;23.588;2022-12-24T03:02:25;94375.22;;;20.25;29.84
1926;BME280;964;42.606;23.588;2022-12-24T03:05:02;94365.66;;;20.43;29.48
1926;BME280;964;42.606;23.588;2022-12-24T03:07:37;94370.75;;;19.75;30.13
1926;BME280;964;42.606;23.588;2022-12-24T03:10:14;94370.50;;;18.96;30.85
1926;BME280;964;42.606;23.588;2022-12-24T03:12:44;94364.59;;;19.55;30.84
1926;BME280;964;42.606;23.588;2022-12-24T03:15:15;94370.66;;;19.36;31.20
1926;BME280;964;42.606;23.588;2022-12-24T03:17:45;94367.75;;;19.27;31.28
1926;BME280;964;42.606;23.588;2022-12-24T03:20:17;94367.13;;;19.39;31.18
1926;BME280;964;42.606;23.588;2022-12-24T03:22:45;94364.13;;;19.60;30.48
1926;BME280;964;42.606;23.588;2022-12-24T03:25:12;94366.19;;;19.02;31.72
1926;BME280;964;42.606;23.588;2022-12-24T03:27:39;94374.50;;;19.35;31.16
1926;BME280;964;42.606;23.588;2022-12-24T03:30:08;94364.19;;;19.56;30.15
1926;BME280;964;42.606;23.588;2022-12-24T03:32:36;94362.22;;;19.80;30.28
1926;BME280;964;42.606;23.588;2022-12-24T03:35:04;94366.94;;;20.16;29.55
1926;BME280;964;42.606;23.588;2022-12-24T03:37:31;94368.19;;;19.91;29.54
1926;BME280;964;42.606;23.588;2022-12-24T03:39:58;94370.78;;;20.15;29.28
1926;BME280;964;42.606;23.588;2022-12-24T03:42:25;94354.78;;;20.07;29.50
1926;BME280;964;42.606;23.588;2022-12-24T03:44:51;94358.38;;;19.81;29.84
1926;BME280;964;42.606;23.588;2022-12-24T03:47:18;94358.06;;;19.56;29.75
1926;BME280;964;42.606;23.588;2022-12-24T03:49:45;94358.75;;;19.60;29.85
1926;BME280;964;42.606;23.588;2022-12-24T03:52:13;94351.81;;;19.82;30.17
1926;BME280;964;42.606;23.588;2022-12-24T03:54:40;94360.84;;;19.26;30.90
1926;BME280;964;42.606;23.588;2022-12-24T03:57:06;94362.38;;;19.27;29.91
1926;BME280;964;42.606;23.588;2022-12-24T03:59:33;94365.50;;;19.68;29.50
1926;BME280;964;42.606;23.588;2022-12-24T04:02:00;94362.44;;;19.89;29.32
1926;BME280;964;42.606;23.588;2022-12-24T04:04:26;94368.25;;;19.88;29.32
1926;BME280;964;42.606;23.588;2022-12-24T04:06:53;94366.22;;;19.72;29.64
1926;BME280;964;42.606;23.588;2022-12-24T04:09:21;94377.97;;;19.58;30.05
1926;BME280;964;42.606;23.588;2022-12-24T04:11:48;94378.38;;;19.80;29.65
1926;BME280;964;42.606;23.588;2022-12-24T04:14:15;94381.88;;;19.54;30.09
1926;BME280;964;42.606;23.588;2022-12-24T04:16:42;94381.34;;;19.39;29.98
1926;BME280;964;42.606;23.588;2022-12-24T04:19:08;94380.16;;;19.87;29.44
1926;BME280;964;42.606;23.588;2022-12-24T04:21:35;94381.53;;;19.75;29.38
1926;BME280;964;42.606;23.588;2022-12-24T04:24:02;94375.28;;;20.01;29.38
1926;BME280;964;42.606;23.588;2022-12-24T04:26:30;94377.31;;;20.37;29.12
1926;BME280;964;42.606;23.588;2022-12-24T04:28:57;94369.00;;;20.67;29.06
1926;BME280;964;42.606;23.588;2022-12-24T04:31:23;94373.84;;;20.56;28.78
1926;BME280;964;42.606;23.588;2022-12-24T04:33:51;94383.56;;;20.11;29.16
1926;BME280;964;42.606;23.588;2022-12-24T04:36:18;94381.28;;;20.09;29.22
1926;BME280;964;42.606;23.588;2022-12-24T04:38:46;94391.44;;;20.21;29.13
1926;BME280;964;42.606;23.588;2022-12-24T04:41:15;94394.06;;;20.44;28.81
1926;BME280;964;42.606;23.588;2022-12-24T04:43:47;94395.06;;;20.34;28.80
1926;BME280;964;42.606;23.588;2022-12-24T04:46:15;94402.97;;;20.22;29.27
1926;BME280;964;42.606;23.588;2022-12-24T04:48:43;94405.56;;;20.05;29.31
1926;BME280;964;42.606;23.588;2022-12-24T04:51:11;94403.47;;;19.93;29.20
1926;BME280;964;42.606;23.588;2022-12-24T04:53:39;94404.44;;;19.83;29.69
1926;BME280;964;42.606;23.588;2022-12-24T04:56:06;94410.88;;;19.66;29.71
1926;BME280;964;42.606;23.588;2022-12-24T04:58:34;94412.44;;;19.87;29.06
1926;BME280;964;42.606;23.588;2022-12-24T05:01:03;94409.56;;;19.97;28.89
1926;BME280;964;42.606;23.588;2022-12-24T05:03:30;94417.41;;;19.88;28.30
1926;BME280;964;42.606;23.588;2022-12-24T05:06:00;94410.50;;;19.41;28.50
1926;BME280;964;42.606;23.588;2022-12-24T05:08:27;94415.38;;;19.23;29.15
1926;BME280;964;42.606;23.588;2022-12-24T05:10:55;94416.66;;;19.41;28.88
1926;BME280;964;42.606;23.588;2022-12-24T05:13:22;94415.16;;;19.37;28.89
1926;BME280;964;42.606;23.588;2022-12-24T05:15:48;94417.06;;;19.63;28.42
1926;BME280;964;42.606;23.588;2022-12-24T05:18:17;94407.19;;;19.56;29.04
1926;BME280;964;42.606;23.588;2022-12-24T05:20:44;94404.09;;;19.58;29.00
1926;BME280;964;42.606;23.588;2022-12-24T05:23:14;94405.84;;;19.45;28.88
1926;BME280;964;42.606;23.588;2022-12-24T05:25:58;94410.50;;;19.41;28.76
1926;BME280;964;42.606;23.588;2022-12-24T05:28:42;94409.13;;;19.56;28.44
1926;BME280;964;42.606;23.588;2022-12-24T05:31:09;94390.91;;;19.67;28.77
1926;BME280;964;42.606;23.588;2022-12-24T05:33:39;94396.09;;;19.28;29.08
1926;BME280;964;42.606;23.588;2022-12-24T05:36:07;94380.81;;;18.71;30.57
1926;BME280;964;42.606;23.588;2022-12-24T05:38:34;94393.72;;;17.41;31.32
1926;BME280;964;42.606;23.588;2022-12-24T05:41:00;94392.50;;;17.90;31.41
1926;BME280;964;42.606;23.588;2022-12-24T05:43:27;94398.22;;;18.26;31.14
1926;BME280;964;42.606;23.588;2022-12-24T05:45:57;94397.66;;;18.07;31.94
1926;BME280;964;42.606;23.588;2022-12-24T05:48:24;94397.09;;;17.89;31.94
1926;BME280;964;42.606;23.588;2022-12-24T05:50:52;94398.91;;;17.62;33.01
1926;BME280;964;42.606;23.588;2022-12-24T05:53:19;94409.25;;;16.29;35.39
1926;BME280;964;42.606;23.588;2022-12-24T05:55:45;94407.63;;;18.41;32.20
1926;BME280;964;42.606;23.588;2022-12-24T05:58:12;94383.50;;;19.71;30.91
1926;BME280;964;42.606;23.588;2022-12-24T06:00:40;94383.38;;;20.41;29.58
1926;BME280;964;42.606;23.588;2022-12-24T06:03:07;94391.38;;;20.64;29.38
1926;BME280;964;42.606;23.588;2022-12-24T06:05:34;94390.75;;;20.76;29.49
1926;BME280;964;42.606;23.588;2022-12-24T06:08:02;94389.53;;;20.77;29.38
1926;BME280;964;42.606;23.588;2022-12-24T06:10:29;94388.84;;;20.73;29.34
1926;BME280;964;42.606;23.588;2022-12-24T06:12:55;94391.16;;;20.55;29.62
1926;BME280;964;42.606;23.588;2022-12-24T06:15:22;94385.22;;;20.24;30.15
1926;BME280;964;42.606;23.588;2022-12-24T06:17:49;94394.81;;;20.05;30.60
1926;BME280;964;42.606;23.588;2022-12-24T06:20:15;94401.50;;;20.76;29.30
1926;BME280;964;42.606;23.588;2022-12-24T06:22:42;94381.97;;;20.72;29.72
1926;BME280;964;42.606;23.588;2022-12-24T06:25:11;94390.69;;;20.21;30.51
1926;BME280;964;42.606;23.588;2022-12-24T06:27:37;94388.19;;;20.69;29.79
1926;BME280;964;42.606;23.588;2022-12-24T06:30:05;94382.41;;;21.55;28.62
1926;BME280;964;42.606;23.588;2022-12-24T06:32:32;94386.03;;;22.10;28.43
1926;BME280;964;42.606;23.588;2022-12-24T06:34:59;94388.25;;;21.01;29.20
1926;BME280;964;42.606;23.588;2022-12-24T06:37:25;94393.25;;;22.00;28.06
1926;BME280;964;42.606;23.588;2022-12-24T06:39:52;94396.84;;;21.93;28.32
1926;BME280;964;42.606;23.588;2022-12-24T06:42:20;94406.47;;;21.46;28.32
1926;BME280;964;42.606;23.588;2022-12-24T06:44:51;94414.50;;;21.33;28.14
1926;BME280;964;42.606;23.588;2022-12-24T06:47:18;94423.16;;;21.25;28.40
1926;BME280;964;42.606;23.588;2022-12-24T06:49:44;94432.94;;;21.35;28.19
1926;BME280;964;42.606;23.588;2022-12-24T06:52:11;94430.75;;;21.30;27.86
1926;BME280;964;42.606;23.588;2022-12-24T06:54:37;94434.09;;;21.18;28.10
1926;BME280;964;42.606;23.588;2022-12-24T06:57:04;94424.00;;;21.22;27.71
1926;BME280;964;42.606;23.588;2022-12-24T06:59:33;94431.50;;;20.94;27.87
1926;BME280;964;42.606;23.588;2022-12-24T07:02:00;94430.16;;;20.86;28.56
1926;BME280;964;42.606;23.588;2022-12-24T07:04:27;94418.84;;;20.75;28.96
1926;BME280;964;42.606;23.588;2022-12-24T07:06:53;94431.78;;;20.80;28.89
1926;BME280;964;42.606;23.588;2022-12-24T07:09:20;94425.47;;;21.07;29.08
1926;BME280;964;42.606;23.588;2022-12-24T07:11:47;94422.56;;;22.56;28.75
1926;BME280;964;42.606;23.588;2022-12-24T07:14:13;94403.28;;;24.61;26.60
1926;BME280;964;42.606;23.588;2022-12-24T07:16:41;94393.31;;;27.14;25.08
1926;BME280;964;42.606;23.588;2022-12-24T07:19:08;94384.56;;;28.38;22.92
1926;BME280;964;42.606;23.588;2022-12-24T07:21:35;94380.63;;;29.42;22.25
1926;BME280;964;42.606;23.588;2022-12-24T07:24:01;94370.31;;;30.98;20.70
1926;BME280;964;42.606;23.588;2022-12-24T07:26:28;94372.28;;;31.60;20.21
1926;BME280;964;42.606;23.588;2022-12-24T07:28:55;94361.25;;;33.45;18.75
1926;BME280;964;42.606;23.588;2022-12-24T07:31:21;94357.00;;;34.82;18.34
1926;BME280;964;42.606;23.588;2022-12-24T07:33:49;94358.75;;;35.45;17.82
1926;BME280;964;42.606;23.588;2022-12-24T07:36:18;94351.66;;;36.41;16.53
1926;BME280;964;42.606;23.588;2022-12-24T07:38:46;94353.09;;;37.16;16.89
1926;BME280;964;42.606;23.588;2022-12-24T07:41:13;94345.06;;;37.00;16.37
1926;BME280;964;42.606;23.588;2022-12-24T07:43:40;94329.44;;;38.73;15.90
1926;BME280;964;42.606;23.588;2022-12-24T07:46:07;94348.31;;;37.75;16.14
1926;BME280;964;42.606;23.588;2022-12-24T07:48:34;94363.13;;;35.59;17.52
1926;BME280;964;42.606;23.588;2022-12-24T07:51:02;94378.22;;;33.05;18.69
1926;BME280;964;42.606;23.588;2022-12-24T07:53:30;94401.94;;;30.99;20.03
1926;BME280;964;42.606;23.588;2022-12-24T07:55:57;94416.97;;;29.18;21.91
1926;BME280;964;42.606;23.588;2022-12-24T07:58:24;94433.56;;;27.43;23.43
1926;BME280;964;42.606;23.588;2022-12-24T08:00:55;94426.94;;;27.35;23.35
1926;BME280;964;42.606;23.588;2022-12-24T08:03:22;94440.28;;;25.69;24.91
1926;BME280;964;42.606;23.588;2022-12-24T08:05:49;94424.25;;;26.20;24.68
1926;BME280;964;42.606;23.588;2022-12-24T08:08:18;94424.41;;;26.35;25.04
1926;BME280;964;42.606;23.588;2022-12-24T08:10:45;94430.13;;;26.46;24.90
1926;BME280;964;42.606;23.588;2022-12-24T08:13:12;94421.25;;;28.37;23.59
1926;BME280;964;42.606;23.588;2022-12-24T08:15:38;94426.03;;;29.39;22.71
1926;BME280;964;42.606;23.588;2022-12-24T08:18:05;94426.56;;;30.13;21.42
1926;BME280;964;42.606;23.588;2022-12-24T08:20:32;94426.44;;;30.42;21.43
1926;BME280;964;42.606;23.588;2022-12-24T08:22:58;94435.25;;;29.12;22.14
1926;BME280;964;42.606;23.588;2022-12-24T08:25:26;94442.91;;;28.55;22.41
1926;BME280;964;42.606;23.588;2022-12-24T08:27:53;94444.94;;;27.98;23.29
1926;BME280;964;42.606;23.588;2022-12-24T08:30:20;94454.34;;;27.32;24.04
1926;BME280;964;42.606;23.588;2022-12-24T08:32:47;94452.97;;;27.27;24.02
1926;BME280;964;42.606;23.588;2022-12-24T08:35:13;94454.38;;;27.13;24.42
1926;BME280;964;42.606;23.588;2022-12-24T08:37:40;94448.72;;;27.35;24.08
1926;BME280;964;42.606;23.588;2022-12-24T08:40:08;94446.03;;;27.26;24.41
1926;BME280;964;42.606;23.588;2022-12-24T08:42:36;94442.31;;;27.56;24.66
1926;BME280;964;42.606;23.588;2022-12-24T08:45:03;94429.81;;;27.73;24.28
1926;BME280;964;42.606;23.588;2022-12-24T08:47:30;94435.47;;;27.94;24.13
1926;BME280;964;42.606;23.588;2022-12-24T08:49:57;94431.31;;;27.74;24.38
1926;BME280;964;42.606;23.588;2022-12-24T08:52:23;94426.22;;;27.67;24.78
1926;BME280;964;42.606;23.588;2022-12-24T08:54:50;94422.94;;;27.54;24.68
1926;BME280;964;42.606;23.588;2022-12-24T08:57:16;94414.16;;;27.59;24.73
1926;BME280;964;42.606;23.588;2022-12-24T08:59:45;94407.88;;;28.01;24.13
1926;BME280;964;42.606;23.588;2022-12-24T09:02:12;94397.72;;;27.77;24.53
1926;BME280;964;42.606;23.588;2022-12-24T09:04:39;94401.75;;;27.58;24.64
1926;BME280;964;42.606;23.588;2022-12-24T09:07:06;94407.75;;;27.39;25.13
1926;BME280;964;42.606;23.588;2022-12-24T09:09:33;94411.91;;;27.07;25.43
1926;BME280;964;42.606;23.588;2022-12-24T09:12:00;94407.66;;;26.55;26.47
1926;BME280;964;42.606;23.588;2022-12-24T09:14:27;94402.03;;;26.49;26.45
1926;BME280;964;42.606;23.588;2022-12-24T09:16:55;94399.75;;;26.84;26.14
1926;BME280;964;42.606;23.588;2022-12-24T09:19:22;94402.97;;;27.15;25.53
1926;BME280;964;42.606;23.588;2022-12-24T09:21:48;94415.91;;;26.06;27.02
1926;BME280;964;42.606;23.588;2022-12-24T09:24:15;94429.13;;;24.97;28.47
1926;BME280;964;42.606;23.588;2022-12-24T09:26:42;94431.41;;;24.33;29.04
1926;BME280;964;42.606;23.588;2022-12-24T09:29:10;94422.72;;;25.12;27.52
1926;BME280;964;42.606;23.588;2022-12-24T09:31:37;94423.75;;;25.06;27.59
1926;BME280;964;42.606;23.588;2022-12-24T09:34:05;94413.63;;;25.77;27.20
1926;BME280;964;42.606;23.588;2022-12-24T09:36:32;94413.78;;;25.33;27.30
1926;BME280;964;42.606;23.588;2022-12-24T09:38:59;94422.47;;;25.68;26.60
1926;BME280;964;42.606;23.588;2022-12-24T09:41:38;94432.50;;;25.10;27.13
1926;BME280;964;42.606;23.588;2022-12-24T09:44:24;94431.69;;;25.31;27.09
1926;BME280;964;42.606;23.588;2022-12-24T09:46:58;94432.53;;;25.50;26.74
1926;BME280;964;42.606;23.588;2022-12-24T09:49:36;94432.66;;;25.06;27.40
1926;BME280;964;42.606;23.588;2022-12-24T09:52:07;94431.00;;;25.09;27.25
1926;BME280;964;42.606;23.588;2022-12-24T09:54:37;94440.63;;;25.80;26.88
1926;BME280;964;42.606;23.588;2022-12-24T09:57:14;94430.06;;;25.82;26.20
1926;BME280;964;42.606;23.588;2022-12-24T09:59:44;94431.16;;;25.45;26.85
1926;BME280;964;42.606;23.588;2022-12-24T10:02:13;94429.63;;;25.93;26.57
1926;BME280;964;42.606;23.588;2022-12-24T10:04:43;94427.13;;;26.26;25.93
1926;BME280;964;42.606;23.588;2022-12-24T10:07:19;94427.84;;;25.50;26.71
1926;BME280;964;42.606;23.588;2022-12-24T10:09:55;94432.19;;;25.78;26.22
1926;BME280;964;42.606;23.588;2022-12-24T10:12:28;94422.28;;;26.12;25.98
1926;BME280;964;42.606;23.588;2022-12-24T10:15:02;94418.94;;;25.99;26.09
1926;BME280;964;42.606;23.588;2022-12-24T10:17:43;94426.78;;;25.97;26.12
1926;BME280;964;42.606;23.588;2022-12-24T10:20:28;94431.63;;;26.11;25.89
1926;BME280;964;42.606;23.588;2022-12-24T10:23:02;94426.13;;;25.74;26.10
1926;BME280;964;42.606;23.588;2022-12-24T10:25:35;94414.84;;;25.85;26.21
1926;BME280;964;42.606;23.588;2022-12-24T10:28:11;94416.22;;;25.90;26.31
1926;BME280;964;42.606;23.588;2022-12-24T10:30:40;94417.41;;;26.16;25.96
1926;BME280;964;42.606;23.588;2022-12-24T10:33:14;94417.69;;;27.00;25.60
1926;BME280;964;42.606;23.588;2022-12-24T10:35:47;94394.09;;;27.48;24.82
1926;BME280;964;42.606;23.588;2022-12-24T10:38:15;94400.84;;;27.61;24.03
1926;BME280;964;42.606;23.588;2022-12-24T10:40:43;94389.81;;;28.27;23.81
1926;BME280;964;42.606;23.588;2022-12-24T10:43:14;94394.78;;;27.90;23.22
1926;BME280;964;42.606;23.588;2022-12-24T10:45:43;94384.00;;;27.39;24.04
1926;BME280;964;42.606;23.588;2022-12-24T10:48:16;94380.31;;;27.51;23.79
1926;BME280;964;42.606;23.588;2022-12-24T10:50:51;94383.75;;;27.28;24.35
1926;BME280;964;42.606;23.588;2022-12-24T10:53:23;94390.16;;;27.07;24.42
1926;BME280;964;42.606;23.588;2022-12-24T10:56:00;94370.72;;;27.89;23.54
1926;BME280;964;42.606;23.588;2022-12-24T10:58:27;94366.03;;;28.27;23.58
1926;BME280;964;42.606;23.588;2022-12-24T11:00:54;94361.34;;;27.90;23.52
1926;BME280;964;42.606;23.588;2022-12-24T11:03:23;94367.59;;;28.05;23.24
1926;BME280;964;42.606;23.588;2022-12-24T11:06:03;94376.97;;;28.04;23.58
1926;BME280;964;42.606;23.588;2022-12-24T11:08:31;94371.88;;;27.97;23.17
1926;BME280;964;42.606;23.588;2022-12-24T11:10:59;94368.06;;;27.80;23.56
1926;BME280;964;42.606;23.588;2022-12-24T11:13:28;94377.56;;;27.60;24.04
1926;BME280;964;42.606;23.588;2022-12-24T11:16:01;94377.16;;;27.53;23.87
1926;BME280;964;42.606;23.588;2022-12-24T11:18:28;94385.97;;;26.97;24.47
1926;BME280;964;42.606;23.588;2022-12-24T11:20:56;94393.69;;;26.80;24.39
1926;BME280;964;42.606;23.588;2022-12-24T11:23:27;94395.66;;;26.89;24.39
1926;BME280;964;42.606;23.588;2022-12-24T11:25:55;94400.56;;;26.39;25.21
1926;BME280;964;42.606;23.588;2022-12-24T11:28:25;94393.25;;;26.72;24.90
1926;BME280;964;42.606;23.588;2022-12-24T11:30:58;94388.41;;;26.95;24.98
1926;BME280;964;42.606;23.588;2022-12-24T11:33:26;94378.13;;;26.99;24.67
1926;BME280;964;42.606;23.588;2022-12-24T11:36:00;94370.16;;;27.19;24.53
1926;BME280;964;42.606;23.588;2022-12-24T11:38:29;94374.00;;;27.36;24.21
1926;BME280;964;42.606;23.588;2022-12-24T11:41:00;94372.63;;;27.41;24.13
1926;BME280;964;42.606;23.588;2022-12-24T11:43:34;94375.81;;;27.48;24.08
1926;BME280;964;42.606;23.588;2022-12-24T11:46:37;94384.97;;;27.18;24.74
1926;BME280;964;42.606;23.588;2022-12-24T11:49:20;94391.72;;;26.99;25.21
1926;BME280;964;42.606;23.588;2022-12-24T11:52:11;94382.22;;;27.27;25.09
1926;BME280;964;42.606;23.588;2022-12-24T11:54:50;94382.56;;;27.20;24.63
1926;BME280;964;42.606;23.588;2022-12-24T11:57:23;94383.69;;;27.46;24.88
1926;BME280;964;42.606;23.588;2022-12-24T11:59:54;94381.34;;;27.21;25.05
1926;BME280;964;42.606;23.588;2022-12-24T12:02:24;94372.63;;;27.41;24.77
1926;BME280;964;42.606;23.588;2022-12-24T12:04:56;94362.38;;;27.68;24.69
1926;BME280;964;42.606;23.588;2022-12-24T12:07:26;94367.34;;;27.46;24.38
1926;BME280;964;42.606;23.588;2022-12-24T12:09:58;94382.38;;;26.72;25.00
1926;BME280;964;42.606;23.588;2022-12-24T12:12:30;94380.38;;;27.00;25.05
1926;BME280;964;42.606;23.588;2022-12-24T12:15:02;94367.78;;;27.54;24.50
1926;BME280;964;42.606;23.588;2022-12-24T12:17:32;94378.13;;;26.99;25.38
1926;BME280;964;42.606;23.588;2022-12-24T12:20:04;94369.25;;;27.22;25.28
1926;BME280;964;42.606;23.588;2022-12-24T12:22:36;94376.00;;;26.94;25.70
1926;BME280;964;42.606;23.588;2022-12-24T12:25:16;94380.53;;;26.97;25.27
1926;BME280;964;42.606;23.588;2022-12-24T12:27:46;94384.25;;;26.48;26.39
1926;BME280;964;42.606;23.588;2022-12-24T12:30:16;94383.09;;;27.33;25.05
1926;BME280;964;42.606;23.588;2022-12-24T12:32:49;94382.59;;;27.11;25.47
1926;BME280;964;42.606;23.588;2022-12-24T12:35:22;94387.16;;;27.05;25.76
1926;BME280;964;42.606;23.588;2022-12-24T12:37:54;94380.38;;;26.82;25.88
1926;BME280;964;42.606;23.588;2022-12-24T12:40:39;94376.19;;;27.23;25.19
1926;BME280;964;42.606;23.588;2022-12-24T12:43:17;94378.63;;;27.21;25.67
1926;BME280;964;42.606;23.588;2022-12-24T12:45:52;94375.53;;;27.37;25.25
1926;BME280;964;42.606;23.588;2022-12-24T12:48:34;94390.38;;;26.94;25.76
1926;BME280;964;42.606;23.588;2022-12-24T12:51:07;94387.50;;;26.89;25.73
1926;BME280;964;42.606;23.588;2022-12-24T12:53:44;94382.06;;;26.70;25.69
1926;BME280;964;42.606;23.588;2022-12-24T12:56:22;94387.66;;;26.76;25.96
1926;BME280;964;42.606;23.588;2022-12-24T12:58:56;94391.81;;;27.13;25.72
1926;BME280;964;42.606;23.588;2022-12-24T13:01:31;94394.88;;;26.97;25.74
1926;BME280;964;42.606;23.588;2022-12-24T13:04:20;94403.31;;;27.08;25.81
1926;BME280;964;42.606;23.588;2022-12-24T13:07:30;94404.41;;;26.93;25.75
1926;BME280;964;42.606;23.588;2022-12-24T13:10:18;94411.03;;;27.10;25.86
1926;BME280;964;42.606;23.588;2022-12-24T13:16:05;94403.53;;;26.68;25.88
1926;BME280;964;42.606;23.588;2022-12-24T13:18:45;94404.78;;;26.40;26.17
1926;BME280;964;42.606;23.588;2022-12-24T13:21:18;94407.03;;;25.47;27.23
1926;BME280;964;42.606;23.588;2022-12-24T13:23:46;94403.59;;;25.16;27.74
1926;BME280;964;42.606;23.588;2022-12-24T13:26:14;94421.91;;;25.64;27.26
1926;BME280;964;42.606;23.588;2022-12-24T13:28:42;94421.66;;;26.08;26.81
1926;BME280;964;42.606;23.588;2022-12-24T13:31:26;94420.19;;;26.43;26.42
1926;BME280;964;42.606;23.588;2022-12-24T13:34:01;94411.13;;;26.46;26.74
1926;BME280;964;42.606;23.588;2022-12-24T13:36:59;94418.34;;;26.67;26.41
1926;BME280;964;42.606;23.588;2022-12-24T13:39:26;94429.84;;;26.62;26.75
1926;BME280;964;42.606;23.588;2022-12-24T13:41:52;94427.13;;;26.44;26.60
1926;BME280;964;42.606;23.588;2022-12-24T13:44:22;94434.06;;;26.45;26.67